Time;durP1;ratioP1;P1;durP2;ratioP2;P2;SDS_P1;SDS_P2;PMS_P1;PMS_P2;Temp;Humidity;BMP_temperature;BMP_pressure;BME280_temperature;BME280_humidity;BME280_pressure;Samples;Min_cycle;Max_cycle;Signal;HPM_P1;HPM_P2
2022/10/12 00:01:42;;;;;;;38.50;15.45;;;10.00;99.90;;;;;;5016760;28;20197;-61
2022/10/12 00:04:08;;;;;;;13.82;7.43;;;10.00;99.90;;;;;;4980996;28;20229;-62
2022/10/12 00:06:35;;;;;;;21.38;10.32;;;10.00;99.90;;;;;;4993886;28;20240;-61
2022/10/12 00:09:03;;;;;;;24.48;9.70;;;9.80;99.90;;;;;;5006490;28;20946;-62
2022/10/12 00:11:30;;;;;;;21.35;9.13;;;9.80;99.90;;;;;;5000405;28;20201;-61
2022/10/12 00:13:59;;;;;;;18.10;7.60;;;9.80;99.90;;;;;;4988370;28;20683;-62
2022/10/12 00:16:30;;;;;;;13.68;7.80;;;9.70;99.90;;;;;;5023181;28;20579;-62
2022/10/12 00:18:57;;;;;;;13.50;7.22;;;9.70;99.90;;;;;;5001849;28;20205;-61
2022/10/12 00:21:25;;;;;;;12.93;6.35;;;9.70;99.90;;;;;;5003217;28;20211;-61
2022/10/12 00:23:52;;;;;;;9.77;4.78;;;9.70;99.90;;;;;;5022389;28;20229;-62
2022/10/12 00:26:22;;;;;;;6.57;3.78;;;9.80;99.90;;;;;;4986867;28;20205;-61
2022/10/12 00:28:49;;;;;;;8.95;3.72;;;9.80;99.90;;;;;;5005510;28;20209;-62
2022/10/12 00:31:18;;;;;;;6.82;3.75;;;9.80;99.90;;;;;;5002526;28;20596;-61
2022/10/12 00:33:46;;;;;;;7.55;3.78;;;9.90;99.90;;;;;;5017094;28;20212;-62
2022/10/12 00:36:16;;;;;;;10.00;3.50;;;9.90;99.90;;;;;;4984934;28;20915;-61
2022/10/12 00:38:43;;;;;;;6.72;3.08;;;9.80;99.90;;;;;;5002356;28;20205;-61
2022/10/12 00:41:09;;;;;;;9.07;3.25;;;9.70;99.90;;;;;;5002342;28;20205;-61
2022/10/12 00:43:40;;;;;;;4.85;3.22;;;9.70;99.90;;;;;;5009776;28;20316;-61
2022/10/12 00:46:15;;;;;;;7.93;2.63;;;9.70;99.90;;;;;;4979620;28;20217;-62
2022/10/12 00:48:43;;;;;;;7.10;2.40;;;9.70;99.90;;;;;;5021163;28;20563;-61
2022/10/12 00:51:10;;;;;;;3.20;2.50;;;9.70;99.90;;;;;;4990750;28;20205;-61
2022/10/12 00:53:42;;;;;;;2.75;1.70;;;9.60;99.90;;;;;;5001692;28;20216;-61
2022/10/12 00:56:14;;;;;;;2.78;1.67;;;9.60;99.90;;;;;;4980258;28;20678;-61
2022/10/12 00:58:42;;;;;;;1.60;1.50;;;9.50;99.90;;;;;;5035201;28;20228;-61
2022/10/12 01:01:09;;;;;;;1.50;1.40;;;9.40;99.90;;;;;;5007682;28;20283;-61
2022/10/12 01:03:36;;;;;;;3.40;1.30;;;9.30;99.90;;;;;;5020682;28;20325;-61
2022/10/12 01:06:03;;;;;;;4.53;1.30;;;9.30;99.90;;;;;;5028713;28;20216;-62
2022/10/12 01:08:30;;;;;;;3.85;1.33;;;9.40;99.90;;;;;;5003369;28;21122;-62
2022/10/12 01:10:57;;;;;;;3.28;1.20;;;9.40;99.90;;;;;;5041430;28;20197;-61
2022/10/12 01:13:24;;;;;;;1.73;1.35;;;9.40;99.90;;;;;;5017589;28;20206;-61
2022/10/12 01:15:59;;;;;;;1.77;1.60;;;9.40;99.90;;;;;;5035666;28;20217;-61
2022/10/12 01:18:34;;;;;;;2.50;1.65;;;9.30;99.90;;;;;;5019038;28;20196;-61
2022/10/12 01:21:10;;;;;;;2.30;1.40;;;9.30;99.90;;;;;;5026963;28;20208;-61
2022/10/12 01:24:01;;;;;;;1.58;1.30;;;9.30;99.90;;;;;;5010653;28;20232;-61
2022/10/12 01:26:52;;;;;;;2.60;1.30;;;9.20;99.90;;;;;;4998467;28;20208;-61
2022/10/12 01:29:36;;;;;;;3.47;1.52;;;9.20;99.90;;;;;;5016492;28;20242;-61
2022/10/12 01:32:09;;;;;;;1.85;1.48;;;9.20;99.90;;;;;;5011890;28;20208;-62
2022/10/12 01:34:44;;;;;;;1.48;1.35;;;9.20;99.90;;;;;;5028220;28;20196;-62
2022/10/12 01:37:16;;;;;;;2.33;1.65;;;9.10;99.90;;;;;;5034941;28;20207;-61
2022/10/12 01:39:49;;;;;;;1.40;1.30;;;9.10;99.90;;;;;;5027836;28;20193;-61
2022/10/12 01:42:22;;;;;;;2.60;1.20;;;9.00;99.90;;;;;;5027350;28;20690;-62
2022/10/12 01:44:49;;;;;;;1.17;1.08;;;8.90;99.90;;;;;;5031585;28;20235;-61
2022/10/12 01:47:17;;;;;;;1.50;1.25;;;8.90;99.90;;;;;;5013854;28;20717;-61
2022/10/12 01:49:44;;;;;;;2.47;1.50;;;8.70;99.90;;;;;;5040545;28;20293;-61
2022/10/12 01:52:26;;;;;;;2.42;1.55;;;8.60;99.90;;;;;;5035424;28;20200;-62
2022/10/12 01:55:24;;;;;;;1.45;1.33;;;8.60;99.90;;;;;;5032450;28;20212;-61
2022/10/12 01:58:07;;;;;;;1.60;1.50;;;8.50;99.90;;;;;;5025407;28;20703;-62
2022/10/12 02:00:42;;;;;;;1.30;1.20;;;8.50;99.90;;;;;;4998309;28;22909;-61
2022/10/12 02:03:16;;;;;;;1.80;1.40;;;8.50;99.90;;;;;;4995172;28;20212;-62
2022/10/12 02:05:48;;;;;;;1.60;1.40;;;8.60;99.90;;;;;;4998565;28;20206;-61
2022/10/12 02:08:19;;;;;;;2.10;1.70;;;8.60;99.90;;;;;;5022681;28;20204;-61
2022/10/12 02:10:53;;;;;;;1.93;1.70;;;8.50;99.90;;;;;;4992239;28;21346;-61
2022/10/12 02:13:24;;;;;;;5.38;2.17;;;8.50;99.90;;;;;;5024438;28;20204;-62
2022/10/12 02:15:53;;;;;;;2.05;1.73;;;8.50;99.90;;;;;;5002300;28;20213;-61
2022/10/12 02:18:24;;;;;;;3.17;1.80;;;8.40;99.90;;;;;;4979433;28;20209;-61
2022/10/12 02:20:53;;;;;;;4.65;1.95;;;8.40;99.90;;;;;;5008503;28;20207;-61
2022/10/12 02:23:23;;;;;;;5.53;1.90;;;8.50;99.90;;;;;;5023023;28;20201;-61
2022/10/12 02:25:51;;;;;;;2.13;1.60;;;8.60;99.90;;;;;;5009652;28;20201;-61
2022/10/12 02:28:21;;;;;;;2.17;1.70;;;8.60;99.90;;;;;;5016633;28;20730;-61
2022/10/12 02:30:52;;;;;;;3.50;2.20;;;8.60;99.90;;;;;;4999159;28;20793;-61
2022/10/12 02:33:27;;;;;;;4.27;2.30;;;8.60;99.90;;;;;;4997049;28;20202;-61
2022/10/12 02:35:59;;;;;;;6.07;2.38;;;8.60;99.90;;;;;;5008649;28;20992;-61
2022/10/12 02:38:31;;;;;;;4.55;2.30;;;8.60;99.90;;;;;;5023359;28;20202;-62
2022/10/12 02:41:04;;;;;;;3.05;2.00;;;8.50;99.90;;;;;;5011493;28;20997;-61
2022/10/12 02:43:36;;;;;;;7.05;2.33;;;8.40;99.90;;;;;;4996431;28;20694;-62
2022/10/12 02:46:05;;;;;;;12.05;2.60;;;8.50;99.90;;;;;;5004318;28;20598;-62
2022/10/12 02:48:35;;;;;;;5.00;2.10;;;8.40;99.90;;;;;;4979067;28;20825;-61
2022/10/12 02:51:03;;;;;;;4.97;2.65;;;8.50;99.90;;;;;;5008820;28;20707;-61
2022/10/12 02:53:31;;;;;;;5.97;2.38;;;8.50;99.90;;;;;;5013593;28;20210;-62
2022/10/12 02:56:02;;;;;;;3.92;2.47;;;8.50;99.90;;;;;;5008667;28;20208;-61
2022/10/12 02:58:29;;;;;;;4.95;2.45;;;8.50;99.90;;;;;;4995067;28;20225;-61
2022/10/12 03:00:56;;;;;;;7.15;2.50;;;8.50;99.90;;;;;;4995801;28;20285;-61
2022/10/12 03:03:23;;;;;;;6.00;2.13;;;8.50;99.90;;;;;;5023432;28;20202;-62
2022/10/12 03:05:51;;;;;;;3.92;2.72;;;8.50;99.90;;;;;;4984776;28;20232;-61
2022/10/12 03:08:18;;;;;;;4.45;2.60;;;8.50;99.90;;;;;;5020147;28;20194;-61
2022/10/12 03:10:44;;;;;;;6.20;2.47;;;8.40;99.90;;;;;;5023044;28;20200;-62
2022/10/12 03:13:12;;;;;;;4.63;2.42;;;8.40;99.90;;;;;;5014954;28;20225;-62
2022/10/12 03:15:38;;;;;;;3.87;2.13;;;8.40;99.90;;;;;;5020977;28;20220;-62
2022/10/12 03:18:05;;;;;;;6.90;2.23;;;8.40;99.90;;;;;;4990969;28;20216;-61
2022/10/12 03:20:32;;;;;;;5.20;2.75;;;8.40;99.90;;;;;;4980144;28;20217;-61
2022/10/12 03:23:00;;;;;;;5.93;2.40;;;8.50;99.90;;;;;;5025723;28;20202;-61
2022/10/12 03:25:27;;;;;;;4.37;2.40;;;8.30;99.90;;;;;;4997746;28;20243;-62
2022/10/12 03:27:54;;;;;;;3.75;2.50;;;8.30;99.90;;;;;;4999714;28;20212;-61
2022/10/12 03:30:21;;;;;;;5.70;2.80;;;8.20;99.90;;;;;;4985665;28;20296;-61
2022/10/12 03:32:47;;;;;;;4.10;2.50;;;8.20;99.90;;;;;;4990911;28;20213;-62
2022/10/12 03:35:15;;;;;;;8.90;2.90;;;8.30;99.90;;;;;;4964809;28;20818;-61
2022/10/12 03:37:42;;;;;;;4.70;2.40;;;8.30;99.90;;;;;;5003616;28;20206;-61
2022/10/12 03:40:11;;;;;;;5.73;2.93;;;8.30;99.90;;;;;;5017950;28;20698;-61
2022/10/12 03:42:38;;;;;;;4.73;2.80;;;8.30;99.90;;;;;;5012452;28;20200;-61
2022/10/12 03:45:05;;;;;;;8.10;3.10;;;8.30;99.90;;;;;;4990001;28;20226;-61
2022/10/12 03:47:32;;;;;;;5.93;2.90;;;8.40;99.90;;;;;;4975582;28;20212;-61
2022/10/12 03:49:59;;;;;;;6.97;2.87;;;8.30;99.90;;;;;;4994066;28;20212;-61
2022/10/12 03:52:26;;;;;;;7.17;3.30;;;8.30;99.90;;;;;;4966280;28;20221;-61
2022/10/12 03:54:53;;;;;;;8.50;3.03;;;8.30;99.90;;;;;;5008372;28;20197;-61
2022/10/12 03:57:21;;;;;;;7.37;3.00;;;8.30;99.90;;;;;;4991583;28;20244;-61
2022/10/12 03:59:48;;;;;;;5.93;3.07;;;8.20;99.90;;;;;;4999501;28;20205;-61
2022/10/12 04:02:15;;;;;;;4.23;2.80;;;8.20;99.90;;;;;;5004833;28;20252;-61
2022/10/12 04:04:42;;;;;;;10.73;3.30;;;8.20;99.90;;;;;;4980076;28;20225;-61
2022/10/12 04:07:09;;;;;;;4.70;2.87;;;8.20;99.90;;;;;;4975570;28;20225;-62
2022/10/12 04:09:36;;;;;;;7.03;3.23;;;8.20;99.90;;;;;;4999413;28;20454;-61
2022/10/12 04:12:02;;;;;;;7.63;3.20;;;8.20;99.90;;;;;;4995432;28;20202;-62
2022/10/12 04:14:31;;;;;;;9.47;3.37;;;8.20;99.90;;;;;;4974583;28;20206;-61
2022/10/12 04:16:57;;;;;;;5.00;2.77;;;8.10;99.90;;;;;;4967037;28;20514;-62
2022/10/12 04:19:24;;;;;;;8.93;3.40;;;8.20;99.90;;;;;;4986276;28;20209;-61
2022/10/12 04:21:51;;;;;;;3.70;2.53;;;7.80;99.90;;;;;;4975757;28;20511;-61
2022/10/12 04:24:18;;;;;;;7.10;3.00;;;7.80;99.90;;;;;;4991776;28;20220;-61
2022/10/12 04:26:45;;;;;;;5.47;2.70;;;7.70;99.90;;;;;;5009687;28;20831;-62
2022/10/12 04:29:13;;;;;;;4.53;2.93;;;7.80;99.90;;;;;;4986886;28;20205;-62
2022/10/12 04:31:41;;;;;;;6.57;3.20;;;7.80;99.90;;;;;;4987873;28;20225;-61
2022/10/12 04:34:09;;;;;;;4.93;2.87;;;8.00;99.90;;;;;;5005220;28;20216;-61
2022/10/12 04:36:36;;;;;;;4.40;2.97;;;8.00;99.90;;;;;;4971895;28;20213;-61
2022/10/12 04:39:03;;;;;;;10.60;3.00;;;7.80;99.90;;;;;;5007173;28;21143;-61
2022/10/12 04:41:31;;;;;;;5.27;3.27;;;7.60;99.90;;;;;;4992058;28;20704;-61
2022/10/12 04:43:57;;;;;;;9.13;3.53;;;7.70;99.90;;;;;;4984574;28;21003;-61
2022/10/12 04:46:24;;;;;;;19.27;7.47;;;7.80;99.90;;;;;;4992394;28;20240;-62
2022/10/12 04:48:52;;;;;;;13.70;5.90;;;7.80;99.90;;;;;;4994415;28;20229;-61
2022/10/12 04:51:19;;;;;;;20.67;8.30;;;7.70;99.90;;;;;;4989788;28;20233;-62
2022/10/12 04:53:46;;;;;;;24.03;9.27;;;7.60;99.90;;;;;;4972695;28;21326;-62
2022/10/12 04:56:13;;;;;;;29.17;11.27;;;7.80;99.90;;;;;;4990930;28;21387;-61
2022/10/12 04:58:39;;;;;;;31.50;11.80;;;7.80;99.90;;;;;;4999706;28;20924;-61
2022/10/12 05:01:06;;;;;;;23.83;8.73;;;7.70;99.90;;;;;;4993444;28;20229;-62
2022/10/12 05:03:33;;;;;;;18.03;8.07;;;7.60;99.90;;;;;;5003949;28;20221;-61
2022/10/12 05:06:01;;;;;;;18.37;7.77;;;7.60;99.90;;;;;;4984432;28;20237;-61
2022/10/12 05:08:28;;;;;;;12.70;5.87;;;7.70;99.90;;;;;;4960523;28;20745;-61
2022/10/12 05:10:57;;;;;;;15.27;5.27;;;7.60;99.90;;;;;;4994683;28;20260;-61
2022/10/12 05:13:24;;;;;;;9.33;5.27;;;7.70;99.90;;;;;;5003835;28;20226;-61
2022/10/12 05:15:51;;;;;;;10.10;3.90;;;7.70;99.90;;;;;;4999962;28;21327;-62
2022/10/12 05:18:18;;;;;;;8.87;3.97;;;7.70;99.90;;;;;;5017460;28;20538;-61
2022/10/12 05:20:45;;;;;;;9.30;3.40;;;7.70;99.90;;;;;;5020322;28;20999;-62
2022/10/12 05:23:13;;;;;;;10.20;3.20;;;7.70;99.90;;;;;;5007380;28;20198;-62
2022/10/12 05:25:40;;;;;;;5.53;2.70;;;7.70;99.90;;;;;;4990130;28;20370;-61
2022/10/12 05:28:07;;;;;;;5.13;3.00;;;7.70;99.90;;;;;;5022399;28;20222;-62
2022/10/12 05:30:34;;;;;;;3.87;2.30;;;7.70;99.90;;;;;;5007948;28;20205;-61
2022/10/12 05:33:01;;;;;;;4.73;2.50;;;7.70;99.90;;;;;;5011674;28;20222;-62
2022/10/12 05:35:28;;;;;;;3.53;2.40;;;7.90;99.90;;;;;;5024920;28;20198;-62
2022/10/12 05:37:54;;;;;;;2.23;1.83;;;8.10;99.90;;;;;;4986783;28;20667;-62
2022/10/12 05:40:22;;;;;;;3.50;2.27;;;8.10;99.90;;;;;;4992744;28;20213;-62
2022/10/12 05:42:49;;;;;;;2.40;1.93;;;7.90;99.90;;;;;;5006527;28;20301;-62
2022/10/12 05:45:16;;;;;;;2.43;2.20;;;7.80;99.90;;;;;;5013536;28;20222;-62
2022/10/12 05:47:43;;;;;;;4.07;2.00;;;7.60;99.90;;;;;;5003783;28;20408;-62
2022/10/12 05:50:10;;;;;;;4.50;2.17;;;7.50;99.90;;;;;;5024140;28;20213;-62
2022/10/12 05:52:37;;;;;;;5.33;2.10;;;7.50;99.90;;;;;;4999545;28;20754;-62
2022/10/12 05:55:04;;;;;;;3.50;2.27;;;7.40;99.90;;;;;;4995291;28;20218;-61
2022/10/12 05:57:32;;;;;;;3.93;2.20;;;7.40;99.90;;;;;;5011031;28;20239;-62
2022/10/12 05:59:59;;;;;;;2.40;2.20;;;7.50;99.90;;;;;;5008941;28;20224;-61
2022/10/12 06:02:26;;;;;;;2.90;2.53;;;7.50;99.90;;;;;;5012266;28;20224;-62
2022/10/12 06:04:53;;;;;;;2.53;2.23;;;7.50;99.90;;;;;;5016200;28;21440;-61
2022/10/12 06:07:19;;;;;;;4.67;2.70;;;7.50;99.90;;;;;;5024638;28;20580;-61
2022/10/12 06:09:47;;;;;;;3.43;2.30;;;7.50;99.90;;;;;;4978536;28;20580;-61
2022/10/12 06:12:15;;;;;;;6.97;2.40;;;7.50;99.90;;;;;;5031183;28;20651;-61
2022/10/12 06:14:43;;;;;;;2.97;2.70;;;7.60;99.90;;;;;;5014257;28;21003;-61
2022/10/12 06:17:10;;;;;;;3.77;2.40;;;7.60;99.90;;;;;;5027003;28;20208;-61
2022/10/12 06:19:36;;;;;;;5.57;2.90;;;7.60;99.90;;;;;;5008363;28;20224;-61
2022/10/12 06:22:04;;;;;;;9.50;2.93;;;7.60;99.90;;;;;;5025479;28;20205;-62
2022/10/12 06:24:31;;;;;;;5.40;3.00;;;7.70;99.90;;;;;;5007203;28;20198;-62
2022/10/12 06:26:57;;;;;;;5.57;2.70;;;7.70;99.90;;;;;;4994569;28;20970;-62
2022/10/12 06:29:24;;;;;;;6.30;2.87;;;7.70;99.90;;;;;;5013524;28;20206;-62
2022/10/12 06:31:53;;;;;;;3.53;2.77;;;7.80;99.90;;;;;;5022789;28;20206;-62
2022/10/12 06:34:20;;;;;;;6.23;3.10;;;7.80;99.90;;;;;;5017930;28;20202;-61
2022/10/12 06:36:47;;;;;;;7.40;2.93;;;7.80;99.90;;;;;;5009179;28;20221;-62
2022/10/12 06:39:14;;;;;;;6.27;2.60;;;7.80;99.90;;;;;;5006671;28;20210;-61
2022/10/12 06:41:41;;;;;;;7.30;3.00;;;7.80;99.90;;;;;;4995322;28;20213;-62
2022/10/12 06:44:08;;;;;;;7.67;2.90;;;7.80;99.90;;;;;;5016656;28;20214;-62
2022/10/12 06:46:35;;;;;;;7.33;2.87;;;7.90;99.90;;;;;;5022005;28;20232;-62
2022/10/12 06:49:03;;;;;;;10.13;3.10;;;7.80;99.90;;;;;;5026701;28;20217;-62
2022/10/12 06:51:30;;;;;;;4.60;2.87;;;7.80;99.90;;;;;;5006770;28;20220;-62
2022/10/12 06:53:56;;;;;;;6.17;2.83;;;7.90;99.90;;;;;;5022396;28;20240;-62
2022/10/12 06:56:24;;;;;;;8.30;3.20;;;7.80;99.90;;;;;;4989046;28;20240;-62
2022/10/12 06:58:54;;;;;;;5.53;2.83;;;7.80;99.90;;;;;;4990412;28;20324;-61
2022/10/12 07:01:21;;;;;;;9.90;3.43;;;7.90;99.90;;;;;;5013819;28;20726;-62
2022/10/12 07:03:47;;;;;;;5.93;3.10;;;7.90;99.90;;;;;;5006414;28;20229;-63
2022/10/12 07:06:16;;;;;;;6.60;3.20;;;7.90;99.90;;;;;;5006756;28;20240;-62
2022/10/12 07:08:43;;;;;;;8.17;3.33;;;8.00;99.90;;;;;;5014501;28;20205;-61
2022/10/12 07:11:12;;;;;;;8.03;3.37;;;8.00;99.90;;;;;;5005954;28;20204;-62
2022/10/12 07:13:39;;;;;;;7.33;3.47;;;8.00;99.90;;;;;;4992559;28;20220;-62
2022/10/12 07:16:06;;;;;;;5.83;3.33;;;8.10;99.90;;;;;;5015077;28;20209;-62
2022/10/12 07:18:33;;;;;;;13.83;3.40;;;8.10;99.90;;;;;;5018725;28;20225;-61
2022/10/12 07:21:01;;;;;;;5.47;3.50;;;8.10;99.90;;;;;;5026843;28;20197;-62
2022/10/12 07:23:30;;;;;;;7.83;3.83;;;8.20;99.90;;;;;;5002552;28;20209;-61
2022/10/12 07:25:57;;;;;;;4.67;2.67;;;8.20;99.90;;;;;;5006604;28;20221;-61
2022/10/12 07:28:23;;;;;;;8.93;3.67;;;8.30;99.90;;;;;;4992795;28;20209;-62
2022/10/12 07:30:51;;;;;;;3.90;3.27;;;8.30;99.90;;;;;;5010125;28;20210;-62
2022/10/12 07:33:17;;;;;;;7.40;3.80;;;8.30;99.90;;;;;;5024524;28;20580;-62
2022/10/12 07:35:52;;;;;;;8.80;3.67;;;8.30;99.90;;;;;;5017038;28;20618;-61
2022/10/12 07:38:19;;;;;;;9.70;3.60;;;8.40;99.90;;;;;;5006198;28;20224;-62
2022/10/12 07:40:47;;;;;;;5.53;3.30;;;8.40;99.90;;;;;;4990937;28;20208;-62
2022/10/12 07:43:14;;;;;;;7.00;3.60;;;8.50;99.90;;;;;;5019133;28;20194;-62
2022/10/12 07:45:42;;;;;;;9.67;3.73;;;8.50;99.90;;;;;;4983921;28;20236;-62
2022/10/12 07:48:08;;;;;;;8.10;3.40;;;8.60;99.90;;;;;;5024514;28;20201;-61
2022/10/12 07:50:35;;;;;;;10.07;4.07;;;8.60;99.90;;;;;;5016308;28;20217;-61
2022/10/12 07:53:02;;;;;;;8.07;3.60;;;8.70;99.90;;;;;;5005921;28;20228;-61
2022/10/12 07:55:30;;;;;;;7.03;3.78;;;8.80;99.90;;;;;;5013523;28;20578;-65
2022/10/12 07:57:59;;;;;;;7.83;3.53;;;8.80;99.90;;;;;;5011416;28;20240;-62
2022/10/12 08:00:25;;;;;;;5.63;3.78;;;8.90;99.90;;;;;;4999933;28;20208;-62
2022/10/12 08:02:52;;;;;;;8.93;3.77;;;9.00;99.90;;;;;;5028623;28;20631;-62
2022/10/12 08:05:21;;;;;;;8.30;4.30;;;9.00;99.90;;;;;;5021795;28;21107;-62
2022/10/12 08:07:47;;;;;;;9.57;3.93;;;9.10;99.90;;;;;;5032612;28;20317;-62
2022/10/12 08:10:15;;;;;;;7.78;3.70;;;9.20;99.90;;;;;;5021943;28;20196;-62
2022/10/12 08:12:42;;;;;;;10.07;3.63;;;9.20;99.90;;;;;;5017107;28;20220;-62
2022/10/12 08:15:11;;;;;;;7.20;3.77;;;9.20;99.90;;;;;;5016166;28;20205;-62
2022/10/12 08:17:37;;;;;;;9.97;3.70;;;9.30;99.90;;;;;;5034098;28;20211;-61
2022/10/12 08:20:06;;;;;;;7.20;3.80;;;9.30;99.90;;;;;;5039096;28;20205;-62
2022/10/12 08:22:32;;;;;;;13.45;4.00;;;9.30;99.90;;;;;;5022498;28;20197;-61
2022/10/12 08:24:59;;;;;;;9.32;3.53;;;9.40;99.90;;;;;;5009759;28;21025;-62
2022/10/12 08:27:30;;;;;;;10.35;3.85;;;9.50;99.90;;;;;;5016239;28;20236;-62
2022/10/12 08:29:56;;;;;;;7.68;3.20;;;9.50;99.90;;;;;;5009768;28;26927;-62
2022/10/12 08:32:24;;;;;;;8.93;3.67;;;9.60;99.90;;;;;;5036312;28;20221;-62
2022/10/12 08:34:51;;;;;;;11.38;3.60;;;9.70;99.90;;;;;;5036457;28;20216;-62
2022/10/12 08:37:18;;;;;;;10.93;3.78;;;9.80;99.90;;;;;;5028525;28;20701;-62
2022/10/12 08:39:45;;;;;;;15.93;3.45;;;9.80;99.90;;;;;;5028136;28;20205;-62
2022/10/12 08:42:23;;;;;;;6.03;3.28;;;9.90;99.90;;;;;;5018945;28;20967;-62
2022/10/12 08:45:03;;;;;;;7.57;3.17;;;9.90;99.90;;;;;;5014744;28;20201;-62
2022/10/12 08:47:39;;;;;;;9.02;3.40;;;10.00;99.90;;;;;;5035592;28;20936;-62
2022/10/12 08:50:14;;;;;;;11.15;3.55;;;10.00;99.90;;;;;;5048032;28;20200;-62
2022/10/12 08:52:47;;;;;;;7.85;3.60;;;10.10;99.90;;;;;;5031831;28;20205;-63
2022/10/12 08:55:24;;;;;;;12.20;3.80;;;10.20;99.90;;;;;;5019810;28;20209;-62
2022/10/12 08:57:51;;;;;;;8.63;3.50;;;10.30;99.90;;;;;;5003260;28;20232;-62
2022/10/12 09:00:19;;;;;;;9.38;3.67;;;10.30;99.90;;;;;;4976398;28;20586;-62
2022/10/12 09:02:55;;;;;;;11.82;4.25;;;10.30;99.90;;;;;;5009214;28;20675;-62
2022/10/12 09:05:29;;;;;;;10.18;3.70;;;10.40;99.90;;;;;;5024269;28;20224;-62
2022/10/12 09:08:02;;;;;;;11.80;3.63;;;10.40;99.90;;;;;;5000588;28;20800;-62
2022/10/12 09:10:42;;;;;;;8.43;3.38;;;10.50;99.90;;;;;;5000981;28;20424;-62
2022/10/12 09:13:24;;;;;;;9.65;3.50;;;10.50;99.90;;;;;;4992993;28;20260;-62
2022/10/12 09:15:56;;;;;;;8.00;3.65;;;10.50;99.90;;;;;;4992048;28;20371;-62
2022/10/12 09:18:33;;;;;;;20.23;3.97;;;10.60;99.90;;;;;;5008043;28;20443;-62
2022/10/12 09:21:05;;;;;;;13.35;3.55;;;10.60;99.90;;;;;;5015141;28;20202;-62
2022/10/12 09:23:35;;;;;;;10.45;3.35;;;10.70;99.90;;;;;;5002188;28;20644;-62
2022/10/12 09:26:11;;;;;;;8.05;2.97;;;10.70;99.90;;;;;;5000921;28;20240;-63
2022/10/12 09:28:42;;;;;;;16.60;3.15;;;10.70;99.90;;;;;;4998385;28;20209;-62
2022/10/12 09:31:24;;;;;;;10.93;2.80;;;10.80;99.90;;;;;;4996909;28;20209;-62
2022/10/12 09:33:56;;;;;;;21.30;3.97;;;10.80;99.90;;;;;;5017374;28;20224;-62
2022/10/12 09:36:25;;;;;;;11.63;3.15;;;10.80;99.90;;;;;;5025091;28;20201;-62
2022/10/12 09:38:52;;;;;;;13.07;3.75;;;10.90;99.90;;;;;;5011537;28;20770;-61
2022/10/12 09:41:22;;;;;;;13.38;4.57;;;10.90;99.90;;;;;;4995033;28;20208;-62
2022/10/12 09:43:52;;;;;;;10.32;4.00;;;11.00;99.90;;;;;;4997717;28;20222;-62
2022/10/12 09:46:22;;;;;;;14.15;4.28;;;11.00;99.90;;;;;;4989153;28;20229;-63
2022/10/12 09:49:00;;;;;;;10.98;3.88;;;11.10;99.90;;;;;;5013077;28;20236;-62
2022/10/12 09:51:29;;;;;;;15.52;4.18;;;11.10;99.90;;;;;;5020523;28;20210;-62
2022/10/12 09:54:02;;;;;;;11.20;4.05;;;11.20;99.90;;;;;;5028575;28;20220;-65
2022/10/12 09:56:35;;;;;;;12.25;4.03;;;11.20;99.90;;;;;;5015471;28;20283;-60
2022/10/12 09:59:04;;;;;;;11.27;3.83;;;11.20;99.90;;;;;;5021068;28;20225;-60
2022/10/12 10:01:33;;;;;;;10.70;3.28;;;11.20;99.90;;;;;;5015960;28;20209;-60
2022/10/12 10:04:10;;;;;;;14.48;3.45;;;11.30;99.90;;;;;;5035811;28;20212;-60
2022/10/12 10:06:39;;;;;;;14.48;3.25;;;11.40;99.90;;;;;;5026925;28;20224;-60
2022/10/12 10:09:12;;;;;;;9.70;3.60;;;11.40;99.90;;;;;;5046224;28;20198;-60
2022/10/12 10:11:39;;;;;;;10.38;3.65;;;11.50;99.90;;;;;;5020011;28;20197;-60
2022/10/12 10:14:13;;;;;;;14.10;4.85;;;11.60;99.90;;;;;;5047652;28;20204;-62
2022/10/12 10:16:48;;;;;;;20.42;3.47;;;11.60;99.90;;;;;;4999483;28;20211;-62
2022/10/12 10:19:18;;;;;;;8.13;3.20;;;11.60;99.90;;;;;;5036356;28;20205;-62
2022/10/12 10:21:45;;;;;;;12.73;3.72;;;11.70;99.90;;;;;;5025131;28;21389;-62
2022/10/12 10:24:27;;;;;;;8.48;3.63;;;11.70;99.90;;;;;;5042441;28;20209;-63
2022/10/12 10:26:56;;;;;;;6.68;2.95;;;11.80;99.90;;;;;;5034842;28;20255;-63
2022/10/12 10:29:34;;;;;;;11.75;3.70;;;11.80;99.90;;;;;;5027471;28;20208;-63
2022/10/12 10:32:23;;;;;;;7.57;3.42;;;11.90;99.90;;;;;;5002120;28;20235;-62
2022/10/12 10:35:03;;;;;;;10.68;3.03;;;11.90;99.90;;;;;;5021411;28;20208;-62
2022/10/12 10:37:31;;;;;;;12.50;3.63;;;12.00;20.10;;;;;;5042827;28;20200;-62
2022/10/12 10:39:59;;;;;;;12.75;4.07;;;12.00;15.70;;;;;;5041843;28;20220;-62
2022/10/12 10:42:29;;;;;;;7.30;3.97;;;12.00;12.40;;;;;;5029089;28;20192;-62
2022/10/12 10:45:01;;;;;;;7.72;3.58;;;12.10;9.40;;;;;;5010064;28;20211;-63
2022/10/12 10:47:29;;;;;;;9.45;3.67;;;12.10;6.50;;;;;;5016764;28;21811;-62
2022/10/12 10:49:58;;;;;;;9.50;3.30;;;12.20;2.10;;;;;;5035408;28;20764;-61
2022/10/12 10:52:28;;;;;;;10.30;3.83;;;12.20;1.00;;;;;;5030028;28;21042;-62
2022/10/12 10:55:18;;;;;;;8.82;3.38;;;12.20;1.00;;;;;;5046492;28;20923;-61
2022/10/12 10:57:50;;;;;;;18.23;3.25;;;12.20;1.00;;;;;;5004538;28;20245;-62
2022/10/12 11:00:20;;;;;;;11.20;3.00;;;12.20;1.00;;;;;;5015817;28;20292;-61
2022/10/12 11:02:50;;;;;;;6.32;2.90;;;12.30;1.00;;;;;;4975970;28;20344;-62
2022/10/12 11:05:22;;;;;;;12.15;3.30;;;12.30;1.00;;;;;;5017067;28;20217;-62
2022/10/12 11:07:53;;;;;;;7.60;2.47;;;12.30;1.00;;;;;;5001289;28;21055;-62
2022/10/12 11:10:30;;;;;;;9.30;2.50;;;12.40;1.00;;;;;;5015726;28;20216;-62
2022/10/12 11:13:03;;;;;;;7.00;2.42;;;12.40;1.00;;;;;;5000352;28;20233;-62
2022/10/12 11:15:37;;;;;;;7.25;2.42;;;12.40;1.00;;;;;;5001152;28;20212;-62
2022/10/12 11:18:15;;;;;;;7.07;2.13;;;12.50;1.00;;;;;;4978210;28;20232;-62
2022/10/12 11:20:49;;;;;;;10.27;2.58;;;12.50;1.00;;;;;;5016315;28;20200;-62
2022/10/12 11:23:28;;;;;;;6.43;2.17;;;12.60;1.00;;;;;;5014883;28;20219;-62
2022/10/12 11:26:19;;;;;;;7.70;1.88;;;12.60;1.00;;;;;;5015318;28;20205;-62
2022/10/12 11:28:46;;;;;;;6.75;2.42;;;12.60;1.00;;;;;;4993963;28;20232;-62
2022/10/12 11:31:20;;;;;;;8.15;2.05;;;12.70;1.00;;;;;;5020505;28;20202;-62
2022/10/12 11:33:47;;;;;;;6.65;1.85;;;12.70;1.00;;;;;;4968014;28;20420;-61
2022/10/12 11:36:19;;;;;;;10.40;2.35;;;12.80;1.00;;;;;;4998752;28;20585;-62
2022/10/12 11:38:52;;;;;;;11.20;2.00;;;12.80;1.00;;;;;;5010414;28;21055;-62
2022/10/12 11:41:21;;;;;;;6.50;1.88;;;12.80;1.00;;;;;;5011750;28;20330;-62
2022/10/12 11:43:53;;;;;;;7.38;1.92;;;12.80;1.00;;;;;;4973710;28;20664;-62
2022/10/12 11:46:27;;;;;;;2.97;1.58;;;12.80;1.00;;;;;;5013321;28;20801;-62
2022/10/12 11:48:59;;;;;;;7.80;2.10;;;12.90;1.00;;;;;;4981196;28;20220;-62
2022/10/12 11:51:26;;;;;;;6.95;1.80;;;12.90;1.00;;;;;;5014826;28;22352;-62
2022/10/12 11:54:00;;;;;;;8.57;2.10;;;12.90;1.00;;;;;;5015560;28;20299;-63
2022/10/12 11:56:32;;;;;;;4.65;1.60;;;12.90;1.00;;;;;;5020499;28;20200;-62
2022/10/12 11:59:04;;;;;;;8.07;1.88;;;12.90;1.00;;;;;;4978960;28;20229;-62
2022/10/12 12:01:46;;;;;;;6.43;1.98;;;12.90;1.00;;;;;;4971576;28;20229;-62
2022/10/12 12:04:31;;;;;;;5.22;1.73;;;12.90;1.00;;;;;;4970202;28;20210;-62
2022/10/12 12:07:01;;;;;;;10.45;1.63;;;13.00;1.00;;;;;;4975437;28;20958;-62
2022/10/12 12:09:41;;;;;;;8.30;1.63;;;13.00;1.00;;;;;;5011389;28;20231;-63
2022/10/12 12:12:17;;;;;;;7.38;1.60;;;13.00;1.00;;;;;;5007971;28;20220;-62
2022/10/12 12:14:49;;;;;;;6.13;1.50;;;13.10;1.00;;;;;;4974609;28;20225;-62
2022/10/12 12:17:24;;;;;;;8.35;1.88;;;13.10;1.00;;;;;;4980606;28;20636;-62
2022/10/12 12:19:52;;;;;;;4.45;1.73;;;13.10;1.00;;;;;;4982957;28;20229;-63
2022/10/12 12:22:33;;;;;;;5.28;1.58;;;13.10;1.00;;;;;;4983057;28;20865;-62
2022/10/12 12:25:19;;;;;;;8.75;2.10;;;13.10;1.00;;;;;;5002258;28;20202;-60
2022/10/12 12:27:49;;;;;;;11.95;2.30;;;13.20;1.00;;;;;;4992996;28;20388;-60
2022/10/12 12:30:37;;;;;;;4.53;1.52;;;13.20;1.00;;;;;;4971362;28;20462;-61
2022/10/12 12:33:25;;;;;;;6.60;1.73;;;13.20;1.00;;;;;;4960103;28;20202;-61
2022/10/12 12:35:54;;;;;;;9.02;1.83;;;13.30;1.00;;;;;;4966345;28;20220;-60
2022/10/12 12:38:26;;;;;;;4.00;1.67;;;13.30;1.00;;;;;;4983622;28;20541;-61
2022/10/12 12:41:03;;;;;;;11.95;1.95;;;13.30;1.00;;;;;;4999043;28;20197;-60
2022/10/12 12:44:01;;;;;;;14.93;2.60;;;13.30;1.00;;;;;;5008505;28;20201;-61
2022/10/12 12:47:04;;;;;;;8.35;1.92;;;13.30;1.00;;;;;;4957339;28;20583;-61
2022/10/12 12:49:40;;;;;;;5.30;2.20;;;13.30;1.00;;;;;;4980894;28;21396;-61
2022/10/12 12:52:18;;;;;;;7.65;1.73;;;13.30;1.00;;;;;;4982276;28;20206;-61
2022/10/12 12:55:17;;;;;;;8.90;1.80;;;13.40;1.00;;;;;;5017501;28;20201;-61
2022/10/12 12:58:10;;;;;;;7.43;1.80;;;13.40;1.00;;;;;;5027938;28;20231;-61
2022/10/12 13:00:46;;;;;;;4.68;2.20;;;13.40;1.00;;;;;;4979013;28;20854;-61
2022/10/12 13:03:38;;;;;;;5.25;2.00;;;13.40;1.00;;;;;;5033510;28;20828;-62
2022/10/12 13:06:35;;;;;;;6.25;1.95;;;13.40;1.00;;;;;;4984841;28;20213;-61
2022/10/12 13:09:29;;;;;;;10.93;2.13;;;13.50;1.00;;;;;;5021084;28;20224;-61
2022/10/12 13:12:18;;;;;;;4.97;1.83;;;13.50;1.00;;;;;;5032399;28;20204;-62